sensor_id;sensor_type;location;lat;lon;timestamp;temperature;humidity
23122;DHT22;11730;51.248;22.534;2023-02-04T00:00:11;-0.20;99.90
23122;DHT22;11730;51.248;22.534;2023-02-04T00:02:40;-0.20;99.90
23122;DHT22;11730;51.248;22.534;2023-02-04T00:05:08;-0.30;99.90
23122;DHT22;11730;51.248;22.534;2023-02-04T00:07:35;-0.40;99.90
23122;DHT22;11730;51.248;22.534;2023-02-04T00:10:04;-0.30;99.90
23122;DHT22;11730;51.248;22.534;2023-02-04T00:12:32;-0.20;99.90
23122;DHT22;11730;51.248;22.534;2023-02-04T00:15:00;-0.30;99.90
23122;DHT22;11730;51.248;22.534;2023-02-04T00:17:26;-0.30;99.90
23122;DHT22;11730;51.248;22.534;2023-02-04T00:19:53;-0.30;99.90
23122;DHT22;11730;51.248;22.534;2023-02-04T00:22:20;-0.40;99.90
23122;DHT22;11730;51.248;22.534;2023-02-04T00:24:47;-0.40;99.90
23122;DHT22;11730;51.248;22.534;2023-02-04T00:27:16;-0.40;99.90
23122;DHT22;11730;51.248;22.534;2023-02-04T00:29:43;-0.40;99.90
23122;DHT22;11730;51.248;22.534;2023-02-04T00:32:10;-0.40;99.90
23122;DHT22;11730;51.248;22.534;2023-02-04T00:34:37;-0.40;99.90
23122;DHT22;11730;51.248;22.534;2023-02-04T00:37:04;-0.30;99.90
23122;DHT22;11730;51.248;22.534;2023-02-04T00:39:31;-0.40;99.90
23122;DHT22;11730;51.248;22.534;2023-02-04T00:41:58;-0.30;99.90
23122;DHT22;11730;51.248;22.534;2023-02-04T00:44:25;-0.30;99.90
23122;DHT22;11730;51.248;22.534;2023-02-04T00:46:51;-0.40;99.90
23122;DHT22;11730;51.248;22.534;2023-02-04T00:49:18;-0.40;99.90
23122;DHT22;11730;51.248;22.534;2023-02-04T00:51:45;-0.50;99.90
23122;DHT22;11730;51.248;22.534;2023-02-04T00:54:13;-0.40;99.90
23122;DHT22;11730;51.248;22.534;2023-02-04T00:56:43;-0.40;99.90
23122;DHT22;11730;51.248;22.534;2023-02-04T00:59:10;-0.50;99.90
23122;DHT22;11730;51.248;22.534;2023-02-04T01:01:37;-0.50;99.90
23122;DHT22;11730;51.248;22.534;2023-02-04T01:04:04;-0.60;99.90
23122;DHT22;11730;51.248;22.534;2023-02-04T01:06:31;-0.50;99.90
23122;DHT22;11730;51.248;22.534;2023-02-04T01:08:58;-0.60;99.90
23122;DHT22;11730;51.248;22.534;2023-02-04T01:11:25;-0.60;99.90
23122;DHT22;11730;51.248;22.534;2023-02-04T01:13:52;-0.60;99.90
23122;DHT22;11730;51.248;22.534;2023-02-04T01:16:19;-0.50;99.90
23122;DHT22;11730;51.248;22.534;2023-02-04T01:18:46;-0.40;99.90
23122;DHT22;11730;51.248;22.534;2023-02-04T01:21:13;-0.50;99.90
23122;DHT22;11730;51.248;22.534;2023-02-04T01:23:40;-0.60;99.90
23122;DHT22;11730;51.248;22.534;2023-02-04T01:26:07;-0.60;99.90
23122;DHT22;11730;51.248;22.534;2023-02-04T01:28:34;-0.70;99.90
23122;DHT22;11730;51.248;22.534;2023-02-04T01:31:01;-0.70;99.90
23122;DHT22;11730;51.248;22.534;2023-02-04T01:33:28;-0.70;99.90
23122;DHT22;11730;51.248;22.534;2023-02-04T01:35:55;-0.80;99.90
23122;DHT22;11730;51.248;22.534;2023-02-04T01:38:22;-0.40;99.90
23122;DHT22;11730;51.248;22.534;2023-02-04T01:40:49;-1.00;99.90
23122;DHT22;11730;51.248;22.534;2023-02-04T01:43:16;-0.90;99.90
23122;DHT22;11730;51.248;22.534;2023-02-04T01:45:45;-1.00;99.90
23122;DHT22;11730;51.248;22.534;2023-02-04T01:48:12;-1.10;99.90
23122;DHT22;11730;51.248;22.534;2023-02-04T01:50:51;-1.10;99.90
23122;DHT22;11730;51.248;22.534;2023-02-04T01:53:23;-1.00;99.90
23122;DHT22;11730;51.248;22.534;2023-02-04T01:55:51;-0.90;99.90
23122;DHT22;11730;51.248;22.534;2023-02-04T01:58:19;-0.90;99.90
23122;DHT22;11730;51.248;22.534;2023-02-04T02:00:46;-0.90;99.90
23122;DHT22;11730;51.248;22.534;2023-02-04T02:03:13;-0.80;99.90
23122;DHT22;11730;51.248;22.534;2023-02-04T02:05:49;-1.00;99.90
23122;DHT22;11730;51.248;22.534;2023-02-04T02:08:16;-1.00;99.90
23122;DHT22;11730;51.248;22.534;2023-02-04T02:10:47;-0.90;99.90
23122;DHT22;11730;51.248;22.534;2023-02-04T02:13:16;-0.80;99.90
23122;DHT22;11730;51.248;22.534;2023-02-04T02:15:45;-0.90;99.90
23122;DHT22;11730;51.248;22.534;2023-02-04T02:18:13;-1.00;99.90
23122;DHT22;11730;51.248;22.534;2023-02-04T02:20:42;-1.10;99.90
23122;DHT22;11730;51.248;22.534;2023-02-04T02:23:51;-0.90;99.90
23122;DHT22;11730;51.248;22.534;2023-02-04T02:26:20;-1.00;99.90
23122;DHT22;11730;51.248;22.534;2023-02-04T02:28:48;-1.00;99.90
23122;DHT22;11730;51.248;22.534;2023-02-04T02:31:17;-1.10;99.90
23122;DHT22;11730;51.248;22.534;2023-02-04T02:33:45;-1.10;99.90
23122;DHT22;11730;51.248;22.534;2023-02-04T02:36:13;-1.00;99.90
23122;DHT22;11730;51.248;22.534;2023-02-04T02:38:40;-1.10;99.90
23122;DHT22;11730;51.248;22.534;2023-02-04T02:41:07;-1.00;99.90
23122;DHT22;11730;51.248;22.534;2023-02-04T02:43:37;-1.30;99.90
23122;DHT22;11730;51.248;22.534;2023-02-04T02:46:05;-1.30;99.90
23122;DHT22;11730;51.248;22.534;2023-02-04T02:48:32;0.30;99.90
23122;DHT22;11730;51.248;22.534;2023-02-04T02:50:59;-1.20;99.90
23122;DHT22;11730;51.248;22.534;2023-02-04T02:53:26;-1.30;99.90
23122;DHT22;11730;51.248;22.534;2023-02-04T02:55:53;-1.20;99.90
23122;DHT22;11730;51.248;22.534;2023-02-04T02:58:31;-1.30;99.90
23122;DHT22;11730;51.248;22.534;2023-02-04T03:01:02;-1.40;99.90
23122;DHT22;11730;51.248;22.534;2023-02-04T03:03:32;-1.30;99.90
23122;DHT22;11730;51.248;22.534;2023-02-04T03:06:05;-1.50;99.90
23122;DHT22;11730;51.248;22.534;2023-02-04T03:08:33;-1.40;99.90
23122;DHT22;11730;51.248;22.534;2023-02-04T03:11:00;-1.20;99.90
23122;DHT22;11730;51.248;22.534;2023-02-04T03:13:28;-1.20;99.90
23122;DHT22;11730;51.248;22.534;2023-02-04T03:15:55;-1.30;99.90
23122;DHT22;11730;51.248;22.534;2023-02-04T03:18:22;-1.30;99.90
23122;DHT22;11730;51.248;22.534;2023-02-04T03:20:50;-1.40;99.90
23122;DHT22;11730;51.248;22.534;2023-02-04T03:23:18;-1.40;99.90
23122;DHT22;11730;51.248;22.534;2023-02-04T03:25:45;0.60;99.90
23122;DHT22;11730;51.248;22.534;2023-02-04T03:28:13;-1.40;99.90
23122;DHT22;11730;51.248;22.534;2023-02-04T03:30:40;-1.40;99.90
23122;DHT22;11730;51.248;22.534;2023-02-04T03:33:06;-1.40;99.90
23122;DHT22;11730;51.248;22.534;2023-02-04T03:35:33;-1.20;99.90
23122;DHT22;11730;51.248;22.534;2023-02-04T03:38:00;-1.30;99.90
23122;DHT22;11730;51.248;22.534;2023-02-04T03:40:27;-1.30;99.90
23122;DHT22;11730;51.248;22.534;2023-02-04T03:42:55;-1.10;99.90
23122;DHT22;11730;51.248;22.534;2023-02-04T03:45:22;-1.20;99.90
23122;DHT22;11730;51.248;22.534;2023-02-04T03:47:50;-1.20;99.90
23122;DHT22;11730;51.248;22.534;2023-02-04T03:50:17;-1.20;99.90
23122;DHT22;11730;51.248;22.534;2023-02-04T03:52:44;-1.30;99.90
23122;DHT22;11730;51.248;22.534;2023-02-04T03:55:11;-1.30;99.90
23122;DHT22;11730;51.248;22.534;2023-02-04T03:57:38;-1.40;99.90
23122;DHT22;11730;51.248;22.534;2023-02-04T04:00:05;-1.50;99.90
23122;DHT22;11730;51.248;22.534;2023-02-04T04:02:32;-1.30;99.90
23122;DHT22;11730;51.248;22.534;2023-02-04T04:04:59;-1.30;99.90
23122;DHT22;11730;51.248;22.534;2023-02-04T04:07:26;-1.40;99.90
23122;DHT22;11730;51.248;22.534;2023-02-04T04:09:53;-1.50;99.90
23122;DHT22;11730;51.248;22.534;2023-02-04T04:12:20;-1.30;99.90
23122;DHT22;11730;51.248;22.534;2023-02-04T04:14:47;-1.30;99.90
23122;DHT22;11730;51.248;22.534;2023-02-04T04:17:13;-1.40;99.90
23122;DHT22;11730;51.248;22.534;2023-02-04T04:19:41;-1.50;99.90
23122;DHT22;11730;51.248;22.534;2023-02-04T04:22:10;-1.40;99.90
23122;DHT22;11730;51.248;22.534;2023-02-04T04:24:37;-1.50;99.90
23122;DHT22;11730;51.248;22.534;2023-02-04T04:27:04;-1.50;99.90
23122;DHT22;11730;51.248;22.534;2023-02-04T04:29:31;-1.50;99.90
23122;DHT22;11730;51.248;22.534;2023-02-04T04:31:58;-1.50;99.90
23122;DHT22;11730;51.248;22.534;2023-02-04T04:34:24;-1.40;99.90
23122;DHT22;11730;51.248;22.534;2023-02-04T04:36:51;-1.40;99.90
23122;DHT22;11730;51.248;22.534;2023-02-04T04:39:18;-1.30;99.90
23122;DHT22;11730;51.248;22.534;2023-02-04T04:41:45;-1.50;99.90
23122;DHT22;11730;51.248;22.534;2023-02-04T04:44:12;-1.60;99.90
23122;DHT22;11730;51.248;22.534;2023-02-04T04:46:39;-1.60;99.90
23122;DHT22;11730;51.248;22.534;2023-02-04T04:49:06;-1.50;99.90
23122;DHT22;11730;51.248;22.534;2023-02-04T04:51:33;-1.40;99.90
23122;DHT22;11730;51.248;22.534;2023-02-04T04:54:00;-1.50;99.90
23122;DHT22;11730;51.248;22.534;2023-02-04T04:56:27;-1.40;99.90
23122;DHT22;11730;51.248;22.534;2023-02-04T04:58:53;-1.40;99.90
23122;DHT22;11730;51.248;22.534;2023-02-04T05:01:20;-1.30;99.90
23122;DHT22;11730;51.248;22.534;2023-02-04T05:03:48;-1.30;99.90
23122;DHT22;11730;51.248;22.534;2023-02-04T05:06:15;-1.30;99.90
23122;DHT22;11730;51.248;22.534;2023-02-04T05:08:42;-1.40;99.90
23122;DHT22;11730;51.248;22.534;2023-02-04T05:11:09;-1.40;99.90
23122;DHT22;11730;51.248;22.534;2023-02-04T05:13:36;-1.40;99.90
23122;DHT22;11730;51.248;22.534;2023-02-04T05:16:03;-1.40;99.90
23122;DHT22;11730;51.248;22.534;2023-02-04T05:18:30;-1.40;99.90
23122;DHT22;11730;51.248;22.534;2023-02-04T05:20:57;-1.40;99.90
23122;DHT22;11730;51.248;22.534;2023-02-04T05:23:24;-1.50;99.90
23122;DHT22;11730;51.248;22.534;2023-02-04T05:25:51;-1.40;99.90
23122;DHT22;11730;51.248;22.534;2023-02-04T05:28:17;-1.60;99.90
23122;DHT22;11730;51.248;22.534;2023-02-04T05:30:44;-1.60;99.90
23122;DHT22;11730;51.248;22.534;2023-02-04T05:33:11;-1.50;99.90
23122;DHT22;11730;51.248;22.534;2023-02-04T05:35:38;-1.40;99.90
23122;DHT22;11730;51.248;22.534;2023-02-04T05:38:05;-1.10;99.90
23122;DHT22;11730;51.248;22.534;2023-02-04T05:40:32;-1.40;99.90
23122;DHT22;11730;51.248;22.534;2023-02-04T05:42:59;-1.50;99.90
23122;DHT22;11730;51.248;22.534;2023-02-04T05:45:26;-1.60;99.90
23122;DHT22;11730;51.248;22.534;2023-02-04T05:47:53;-1.60;99.90
23122;DHT22;11730;51.248;22.534;2023-02-04T05:50:20;-1.60;99.90
23122;DHT22;11730;51.248;22.534;2023-02-04T05:52:47;-1.80;99.90
23122;DHT22;11730;51.248;22.534;2023-02-04T05:55:14;-1.80;99.90
23122;DHT22;11730;51.248;22.534;2023-02-04T05:57:40;-1.80;99.90
23122;DHT22;11730;51.248;22.534;2023-02-04T06:00:08;-1.80;99.90
23122;DHT22;11730;51.248;22.534;2023-02-04T06:02:36;-1.80;99.90
23122;DHT22;11730;51.248;22.534;2023-02-04T06:05:03;-1.80;99.90
23122;DHT22;11730;51.248;22.534;2023-02-04T06:07:30;-1.80;99.90
23122;DHT22;11730;51.248;22.534;2023-02-04T06:09:57;-2.00;99.90
23122;DHT22;11730;51.248;22.534;2023-02-04T06:12:27;-1.90;99.90
23122;DHT22;11730;51.248;22.534;2023-02-04T06:14:53;-1.90;99.90
23122;DHT22;11730;51.248;22.534;2023-02-04T06:17:21;-1.90;99.90
23122;DHT22;11730;51.248;22.534;2023-02-04T06:19:48;-2.10;99.90
23122;DHT22;11730;51.248;22.534;2023-02-04T06:22:15;-2.10;99.90
23122;DHT22;11730;51.248;22.534;2023-02-04T06:24:42;-2.20;99.90
23122;DHT22;11730;51.248;22.534;2023-02-04T06:27:11;-2.10;99.90
23122;DHT22;11730;51.248;22.534;2023-02-04T06:29:37;-2.10;99.90
23122;DHT22;11730;51.248;22.534;2023-02-04T06:32:04;-2.10;99.90
23122;DHT22;11730;51.248;22.534;2023-02-04T06:34:31;-2.00;99.90
23122;DHT22;11730;51.248;22.534;2023-02-04T06:36:58;-2.00;99.90
23122;DHT22;11730;51.248;22.534;2023-02-04T06:39:25;-1.90;99.90
23122;DHT22;11730;51.248;22.534;2023-02-04T06:41:52;-1.90;99.90
23122;DHT22;11730;51.248;22.534;2023-02-04T06:44:19;-2.00;99.90
23122;DHT22;11730;51.248;22.534;2023-02-04T06:46:45;-2.00;99.90
23122;DHT22;11730;51.248;22.534;2023-02-04T06:49:12;-1.70;99.90
23122;DHT22;11730;51.248;22.534;2023-02-04T06:51:39;-1.80;99.90
23122;DHT22;11730;51.248;22.534;2023-02-04T06:54:06;-1.90;99.90
23122;DHT22;11730;51.248;22.534;2023-02-04T06:56:33;-1.90;99.90
23122;DHT22;11730;51.248;22.534;2023-02-04T06:59:00;-1.70;99.90
23122;DHT22;11730;51.248;22.534;2023-02-04T07:01:29;-1.60;99.90
23122;DHT22;11730;51.248;22.534;2023-02-04T07:03:56;-1.60;99.90
23122;DHT22;11730;51.248;22.534;2023-02-04T07:06:22;-1.60;99.90
23122;DHT22;11730;51.248;22.534;2023-02-04T07:08:49;-1.40;99.90
23122;DHT22;11730;51.248;22.534;2023-02-04T07:11:16;-1.30;99.90
23122;DHT22;11730;51.248;22.534;2023-02-04T07:13:43;-1.30;99.90
23122;DHT22;11730;51.248;22.534;2023-02-04T07:16:10;-1.20;99.90
23122;DHT22;11730;51.248;22.534;2023-02-04T07:18:37;-1.50;99.90
23122;DHT22;11730;51.248;22.534;2023-02-04T07:21:04;-1.40;99.90
23122;DHT22;11730;51.248;22.534;2023-02-04T07:23:31;-1.50;99.90
23122;DHT22;11730;51.248;22.534;2023-02-04T07:25:58;-1.50;99.90
23122;DHT22;11730;51.248;22.534;2023-02-04T07:28:25;-1.60;99.90
23122;DHT22;11730;51.248;22.534;2023-02-04T07:30:52;-1.60;99.90
23122;DHT22;11730;51.248;22.534;2023-02-04T07:33:19;-1.50;99.90
23122;DHT22;11730;51.248;22.534;2023-02-04T07:35:45;-1.50;99.90
23122;DHT22;11730;51.248;22.534;2023-02-04T07:38:12;-1.50;99.90
23122;DHT22;11730;51.248;22.534;2023-02-04T07:40:40;-1.50;99.90
23122;DHT22;11730;51.248;22.534;2023-02-04T07:43:07;-1.30;99.90
23122;DHT22;11730;51.248;22.534;2023-02-04T07:45:33;-1.30;99.90
23122;DHT22;11730;51.248;22.534;2023-02-04T07:48:00;-1.30;99.90
23122;DHT22;11730;51.248;22.534;2023-02-04T07:50:27;-1.30;99.90
23122;DHT22;11730;51.248;22.534;2023-02-04T07:52:54;-1.30;99.90
23122;DHT22;11730;51.248;22.534;2023-02-04T07:55:21;-1.20;99.90
23122;DHT22;11730;51.248;22.534;2023-02-04T07:57:48;-1.20;99.90
23122;DHT22;11730;51.248;22.534;2023-02-04T08:00:15;-1.30;99.90
23122;DHT22;11730;51.248;22.534;2023-02-04T08:02:42;-1.40;99.90
23122;DHT22;11730;51.248;22.534;2023-02-04T08:05:09;-1.30;99.90
23122;DHT22;11730;51.248;22.534;2023-02-04T08:07:36;-1.30;99.90
23122;DHT22;11730;51.248;22.534;2023-02-04T08:10:05;-1.20;99.90
23122;DHT22;11730;51.248;22.534;2023-02-04T08:12:32;-1.00;99.90
23122;DHT22;11730;51.248;22.534;2023-02-04T08:14:59;-0.90;99.90
23122;DHT22;11730;51.248;22.534;2023-02-04T08:17:27;-0.80;99.90
23122;DHT22;11730;51.248;22.534;2023-02-04T08:19:54;-0.90;99.90
23122;DHT22;11730;51.248;22.534;2023-02-04T08:22:22;-0.70;99.90
23122;DHT22;11730;51.248;22.534;2023-02-04T08:24:49;-0.50;99.90
23122;DHT22;11730;51.248;22.534;2023-02-04T08:27:16;-0.70;99.90
23122;DHT22;11730;51.248;22.534;2023-02-04T08:29:42;-0.50;99.90
23122;DHT22;11730;51.248;22.534;2023-02-04T08:32:09;-0.40;99.90
23122;DHT22;11730;51.248;22.534;2023-02-04T08:34:38;-0.20;99.90
23122;DHT22;11730;51.248;22.534;2023-02-04T08:37:05;-0.30;99.90
23122;DHT22;11730;51.248;22.534;2023-02-04T08:39:32;-0.20;99.90
23122;DHT22;11730;51.248;22.534;2023-02-04T08:41:59;-0.20;99.90
23122;DHT22;11730;51.248;22.534;2023-02-04T08:44:26;-0.40;99.90
23122;DHT22;11730;51.248;22.534;2023-02-04T08:46:53;-0.20;99.90
23122;DHT22;11730;51.248;22.534;2023-02-04T08:49:20;-0.10;99.90
23122;DHT22;11730;51.248;22.534;2023-02-04T08:51:47;-0.10;99.90
23122;DHT22;11730;51.248;22.534;2023-02-04T08:54:14;-0.20;99.90
23122;DHT22;11730;51.248;22.534;2023-02-04T08:56:40;-0.20;99.90
23122;DHT22;11730;51.248;22.534;2023-02-04T08:59:07;-0.10;99.90
23122;DHT22;11730;51.248;22.534;2023-02-04T09:01:34;-0.30;99.90
23122;DHT22;11730;51.248;22.534;2023-02-04T09:04:01;-0.30;99.90
23122;DHT22;11730;51.248;22.534;2023-02-04T09:06:28;-0.20;99.90
23122;DHT22;11730;51.248;22.534;2023-02-04T09:08:55;0.00;99.90
23122;DHT22;11730;51.248;22.534;2023-02-04T09:11:22;-0.30;99.90
23122;DHT22;11730;51.248;22.534;2023-02-04T09:13:49;-0.30;99.90
23122;DHT22;11730;51.248;22.534;2023-02-04T09:16:16;-0.30;99.90
23122;DHT22;11730;51.248;22.534;2023-02-04T09:18:44;-0.50;99.90
23122;DHT22;11730;51.248;22.534;2023-02-04T09:21:11;-0.50;99.90
23122;DHT22;11730;51.248;22.534;2023-02-04T09:23:38;-0.40;99.90
23122;DHT22;11730;51.248;22.534;2023-02-04T09:26:04;-0.40;99.90
23122;DHT22;11730;51.248;22.534;2023-02-04T09:28:32;-0.50;99.90
23122;DHT22;11730;51.248;22.534;2023-02-04T09:30:58;-0.70;99.90
23122;DHT22;11730;51.248;22.534;2023-02-04T09:33:28;-0.80;99.90
23122;DHT22;11730;51.248;22.534;2023-02-04T09:35:54;-0.70;99.90
23122;DHT22;11730;51.248;22.534;2023-02-04T09:38:21;-0.70;99.90
23122;DHT22;11730;51.248;22.534;2023-02-04T09:41:05;-0.60;99.90
23122;DHT22;11730;51.248;22.534;2023-02-04T09:43:39;-0.50;99.90
23122;DHT22;11730;51.248;22.534;2023-02-04T09:46:20;-0.70;99.90
23122;DHT22;11730;51.248;22.534;2023-02-04T09:48:49;-1.10;99.90
23122;DHT22;11730;51.248;22.534;2023-02-04T09:51:27;-1.00;99.90
23122;DHT22;11730;51.248;22.534;2023-02-04T09:54:04;-0.90;99.90
23122;DHT22;11730;51.248;22.534;2023-02-04T09:56:35;-0.90;99.90
23122;DHT22;11730;51.248;22.534;2023-02-04T09:59:05;-1.00;99.90
23122;DHT22;11730;51.248;22.534;2023-02-04T10:01:32;-0.90;99.90
23122;DHT22;11730;51.248;22.534;2023-02-04T10:04:00;-0.80;99.90
23122;DHT22;11730;51.248;22.534;2023-02-04T10:06:28;-1.00;99.90
23122;DHT22;11730;51.248;22.534;2023-02-04T10:08:55;-0.90;99.90
23122;DHT22;11730;51.248;22.534;2023-02-04T10:11:24;-0.80;99.90
23122;DHT22;11730;51.248;22.534;2023-02-04T10:13:54;-0.80;99.90
23122;DHT22;11730;51.248;22.534;2023-02-04T10:16:30;-0.60;99.90
23122;DHT22;11730;51.248;22.534;2023-02-04T10:19:00;-0.50;99.90
23122;DHT22;11730;51.248;22.534;2023-02-04T10:21:30;-0.30;99.90
23122;DHT22;11730;51.248;22.534;2023-02-04T10:24:00;-0.10;99.90
23122;DHT22;11730;51.248;22.534;2023-02-04T10:26:30;-0.10;99.90
23122;DHT22;11730;51.248;22.534;2023-02-04T10:29:02;-0.10;99.90
23122;DHT22;11730;51.248;22.534;2023-02-04T10:34:17;0.60;99.90
23122;DHT22;11730;51.248;22.534;2023-02-04T10:36:51;0.60;99.90
23122;DHT22;11730;51.248;22.534;2023-02-04T10:39:23;0.90;99.90
23122;DHT22;11730;51.248;22.534;2023-02-04T10:41:52;1.40;99.90
23122;DHT22;11730;51.248;22.534;2023-02-04T10:44:28;1.80;99.90
23122;DHT22;11730;51.248;22.534;2023-02-04T10:47:13;3.00;99.90
23122;DHT22;11730;51.248;22.534;2023-02-04T10:49:49;4.30;98.10
23122;DHT22;11730;51.248;22.534;2023-02-04T10:52:19;4.30;92.90
23122;DHT22;11730;51.248;22.534;2023-02-04T10:54:47;5.70;92.20
23122;DHT22;11730;51.248;22.534;2023-02-04T10:57:25;5.90;90.00
23122;DHT22;11730;51.248;22.534;2023-02-04T10:59:57;5.30;86.10
23122;DHT22;11730;51.248;22.534;2023-02-04T11:05:28;6.20;87.40
23122;DHT22;11730;51.248;22.534;2023-02-04T11:07:55;4.70;82.00
23122;DHT22;11730;51.248;22.534;2023-02-04T11:10:26;4.00;88.40
23122;DHT22;11730;51.248;22.534;2023-02-04T11:18:51;2.90;90.10
23122;DHT22;11730;51.248;22.534;2023-02-04T11:21:23;2.70;90.40
23122;DHT22;11730;51.248;22.534;2023-02-04T11:29:29;1.60;91.60
23122;DHT22;11730;51.248;22.534;2023-02-04T11:32:25;1.30;90.70
23122;DHT22;11730;51.248;22.534;2023-02-04T11:34:52;1.30;91.60
23122;DHT22;11730;51.248;22.534;2023-02-04T11:37:37;1.30;91.10
23122;DHT22;11730;51.248;22.534;2023-02-04T11:43:12;1.70;91.40
23122;DHT22;11730;51.248;22.534;2023-02-04T11:45:40;1.60;90.40
23122;DHT22;11730;51.248;22.534;2023-02-04T11:48:19;1.20;91.50
23122;DHT22;11730;51.248;22.534;2023-02-04T11:50:57;1.30;91.90
23122;DHT22;11730;51.248;22.534;2023-02-04T11:53:30;0.90;93.50
23122;DHT22;11730;51.248;22.534;2023-02-04T11:55:58;1.00;92.40
23122;DHT22;11730;51.248;22.534;2023-02-04T11:58:28;0.80;93.10
23122;DHT22;11730;51.248;22.534;2023-02-04T12:00:56;0.60;92.00
23122;DHT22;11730;51.248;22.534;2023-02-04T12:03:28;0.50;92.60
23122;DHT22;11730;51.248;22.534;2023-02-04T12:06:05;0.70;94.10
23122;DHT22;11730;51.248;22.534;2023-02-04T12:08:34;0.50;93.10
23122;DHT22;11730;51.248;22.534;2023-02-04T12:11:28;0.30;91.60
23122;DHT22;11730;51.248;22.534;2023-02-04T12:14:09;0.50;92.90
23122;DHT22;11730;51.248;22.534;2023-02-04T12:16:54;0.50;92.20
23122;DHT22;11730;51.248;22.534;2023-02-04T12:19:22;0.50;92.00
23122;DHT22;11730;51.248;22.534;2023-02-04T12:21:50;0.40;90.00
23122;DHT22;11730;51.248;22.534;2023-02-04T12:24:17;0.60;92.70
23122;DHT22;11730;51.248;22.534;2023-02-04T12:26:44;0.50;90.60
23122;DHT22;11730;51.248;22.534;2023-02-04T12:29:11;0.50;91.70
23122;DHT22;11730;51.248;22.534;2023-02-04T12:31:38;0.50;91.60
23122;DHT22;11730;51.248;22.534;2023-02-04T12:34:05;0.60;92.20
23122;DHT22;11730;51.248;22.534;2023-02-04T12:36:32;0.60;92.70
23122;DHT22;11730;51.248;22.534;2023-02-04T12:38:58;0.50;92.30
23122;DHT22;11730;51.248;22.534;2023-02-04T12:41:25;0.20;91.60
23122;DHT22;11730;51.248;22.534;2023-02-04T12:43:53;0.00;92.50
23122;DHT22;11730;51.248;22.534;2023-02-04T12:46:21;0.10;92.80
23122;DHT22;11730;51.248;22.534;2023-02-04T12:48:49;0.10;94.20
23122;DHT22;11730;51.248;22.534;2023-02-04T12:51:16;-0.10;93.00
23122;DHT22;11730;51.248;22.534;2023-02-04T12:53:42;0.00;93.50
23122;DHT22;11730;51.248;22.534;2023-02-04T12:56:09;0.10;93.70
23122;DHT22;11730;51.248;22.534;2023-02-04T12:58:36;0.50;94.50
23122;DHT22;11730;51.248;22.534;2023-02-04T13:01:03;0.50;94.30
23122;DHT22;11730;51.248;22.534;2023-02-04T13:03:32;0.10;92.90
23122;DHT22;11730;51.248;22.534;2023-02-04T13:05:59;-0.10;92.90
23122;DHT22;11730;51.248;22.534;2023-02-04T13:08:26;0.00;94.70
23122;DHT22;11730;51.248;22.534;2023-02-04T13:10:53;-0.20;93.30
23122;DHT22;11730;51.248;22.534;2023-02-04T13:13:21;-0.50;93.60
23122;DHT22;11730;51.248;22.534;2023-02-04T13:15:48;-0.60;93.40
23122;DHT22;11730;51.248;22.534;2023-02-04T13:18:15;-0.50;93.90
23122;DHT22;11730;51.248;22.534;2023-02-04T13:20:44;-0.60;94.30
23122;DHT22;11730;51.248;22.534;2023-02-04T13:23:12;-0.60;95.30
23122;DHT22;11730;51.248;22.534;2023-02-04T13:25:39;-0.60;95.70
23122;DHT22;11730;51.248;22.534;2023-02-04T13:28:06;-0.40;95.50
23122;DHT22;11730;51.248;22.534;2023-02-04T13:30:33;-0.50;95.00
23122;DHT22;11730;51.248;22.534;2023-02-04T13:33:01;-0.50;95.80
23122;DHT22;11730;51.248;22.534;2023-02-04T13:35:28;-0.50;96.70
23122;DHT22;11730;51.248;22.534;2023-02-04T13:37:56;-0.70;95.40
23122;DHT22;11730;51.248;22.534;2023-02-04T13:40:23;-0.80;95.70
23122;DHT22;11730;51.248;22.534;2023-02-04T13:42:50;-0.70;96.60
23122;DHT22;11730;51.248;22.534;2023-02-04T13:45:17;-0.60;97.00
23122;DHT22;11730;51.248;22.534;2023-02-04T13:47:44;-0.80;96.90
23122;DHT22;11730;51.248;22.534;2023-02-04T13:50:15;-0.90;97.10
23122;DHT22;11730;51.248;22.534;2023-02-04T13:52:42;-0.90;98.00
23122;DHT22;11730;51.248;22.534;2023-02-04T13:55:08;-1.10;98.30
23122;DHT22;11730;51.248;22.534;2023-02-04T13:57:35;-1.30;99.90
23122;DHT22;11730;51.248;22.534;2023-02-04T14:00:04;-1.40;99.90
23122;DHT22;11730;51.248;22.534;2023-02-04T14:02:32;-1.60;99.90
23122;DHT22;11730;51.248;22.534;2023-02-04T14:04:59;-1.60;99.90
23122;DHT22;11730;51.248;22.534;2023-02-04T14:07:27;-1.80;99.90
23122;DHT22;11730;51.248;22.534;2023-02-04T14:09:56;-1.90;99.90
23122;DHT22;11730;51.248;22.534;2023-02-04T14:14:50;-2.00;99.90
23122;DHT22;11730;51.248;22.534;2023-02-04T14:17:17;-2.10;99.90
23122;DHT22;11730;51.248;22.534;2023-02-04T14:19:44;-2.10;99.90
23122;DHT22;11730;51.248;22.534;2023-02-04T14:22:11;-2.00;99.90
23122;DHT22;11730;51.248;22.534;2023-02-04T14:24:39;-2.20;99.90
23122;DHT22;11730;51.248;22.534;2023-02-04T14:27:08;-2.10;99.90
23122;DHT22;11730;51.248;22.534;2023-02-04T14:29:35;-2.10;99.90
23122;DHT22;11730;51.248;22.534;2023-02-04T14:32:02;-2.10;99.90
23122;DHT22;11730;51.248;22.534;2023-02-04T14:34:29;-2.10;99.90
23122;DHT22;11730;51.248;22.534;2023-02-04T14:36:56;-2.00;99.90
23122;DHT22;11730;51.248;22.534;2023-02-04T14:39:23;-2.00;99.90
23122;DHT22;11730;51.248;22.534;2023-02-04T14:41:50;-2.10;99.90
23122;DHT22;11730;51.248;22.534;2023-02-04T14:44:17;-2.20;99.90
23122;DHT22;11730;51.248;22.534;2023-02-04T14:46:47;-2.20;99.90
23122;DHT22;11730;51.248;22.534;2023-02-04T14:49:17;-2.20;99.90
23122;DHT22;11730;51.248;22.534;2023-02-04T14:51:44;-2.30;99.90
23122;DHT22;11730;51.248;22.534;2023-02-04T14:54:11;-2.30;99.90
23122;DHT22;11730;51.248;22.534;2023-02-04T14:56:38;-2.10;99.90
23122;DHT22;11730;51.248;22.534;2023-02-04T14:59:05;-1.90;99.90
23122;DHT22;11730;51.248;22.534;2023-02-04T15:01:32;-2.10;99.90
23122;DHT22;11730;51.248;22.534;2023-02-04T15:03:59;-2.20;99.90
23122;DHT22;11730;51.248;22.534;2023-02-04T15:06:26;-2.30;99.90
23122;DHT22;11730;51.248;22.534;2023-02-04T15:08:53;-2.20;99.90
23122;DHT22;11730;51.248;22.534;2023-02-04T15:11:20;-2.10;99.90
23122;DHT22;11730;51.248;22.534;2023-02-04T15:13:47;-2.20;99.90
23122;DHT22;11730;51.248;22.534;2023-02-04T15:16:13;-2.20;99.90
23122;DHT22;11730;51.248;22.534;2023-02-04T15:18:41;-2.10;99.90
23122;DHT22;11730;51.248;22.534;2023-02-04T15:21:08;-2.10;99.90
23122;DHT22;11730;51.248;22.534;2023-02-04T15:23:35;-2.10;99.90
23122;DHT22;11730;51.248;22.534;2023-02-04T15:26:02;-2.10;99.90
23122;DHT22;11730;51.248;22.534;2023-02-04T15:28:29;-2.30;99.90
23122;DHT22;11730;51.248;22.534;2023-02-04T15:30:57;-2.30;99.90
23122;DHT22;11730;51.248;22.534;2023-02-04T15:33:24;-2.30;99.90
23122;DHT22;11730;51.248;22.534;2023-02-04T15:35:51;-2.40;99.90
23122;DHT22;11730;51.248;22.534;2023-02-04T15:38:18;-2.50;99.90
23122;DHT22;11730;51.248;22.534;2023-02-04T15:40:44;-2.50;99.90
23122;DHT22;11730;51.248;22.534;2023-02-04T15:43:11;-2.50;99.90
23122;DHT22;11730;51.248;22.534;2023-02-04T15:45:38;-2.50;99.90